Strona główna
METAR-TAF:

METAR-TAF

Lotnisko :

Port lotniczy José Martí w Hawanie

Hawana, Kuba

Szerokość geograficzna: 22-59N, Długość geograficzna: 082-24W, wysokość: 59 m

Aktualna obserwacja pogody

Raport powstał 17 minut temu, godzina 13:55 UTC
Wiatr 11 kt od północno-północny zachód, zmienny między zachodnio-północny zachód i północ
Temperatura 23°C
Wilgotność 69%
Ciśnienie 1017 hPa
Widzialność: 9000 m
Przerywane chmury na wysokości 3000 ft

METAR: MUHA 211355Z 33011KT 290V360 9000 BKN030 23/17 Q1017

czas: 10:12 (14:12 UTC)

Prognoza

Raport powstał 3 godziny i 12 minut temu, godzina 11:00 UTC
Prognoza ważna od 21 godzina 12 UTC do 22 godzina 12 UTC
Wiatr 3 kt z kierunków zmiennych
Widzialność: 9000 m
Rozproszone chmury na wysokości 2500 ft
Stopniowe zmiany
od 21 godzina 13 UTC do 21 godzina 15 UTC
Wiatr 12 kt od północ
Stopniowe zmiany
od 22 godzina 00 UTC do 22 godzina 02 UTC
Wiatr 5 kt od północno-północny wschód

TAF: MUHA 211100Z 2112/2212 VRB03KT 9000 SCT025 BECMG 2113/2115 36012KT BECMG 2200/2202 02005KT

Obserwacja i prognoza pogody dla ponad 4000 lotnisk (raport METAR i TAF).

Dostępne stacje oznaczono żółtymi i czerwonymi punktami na mapie.

Najedź kursorem aby zobaczyć nazwę stacji.

Kliknij aby zobaczyć obserwacje i prognozy pogody.

Aby zmienić mapę: kliknij na zielony przycisk z czarnym krzyżykiem, aby powiększyć; na zielony przycisk z myślnikiem, aby pomniejszyć; na zielone strzałki, aby przejść do map sąsiednich.


METAR-TAF: